Time;durP1;ratioP1;P1;durP2;ratioP2;P2;SDS_P1;SDS_P2;PMS_P1;PMS_P2;Temp;Humidity;BMP_temperature;BMP_pressure;BME280_temperature;BME280_humidity;BME280_pressure;Samples;Min_cycle;Max_cycle;Signal;HPM_P1;HPM_P2
2022/08/28 00:02:08;;;;;;;9.98;4.35;;;;;;;21.32;51.47;95284.94;5045704;28;20025;-84
2022/08/28 00:04:34;;;;;;;13.00;4.65;;;;;;;21.30;51.51;95287.06;5046152;28;20037;-84
2022/08/28 00:07:00;;;;;;;10.52;4.32;;;;;;;21.21;52.09;95283.94;5045696;28;20032;-84
2022/08/28 00:09:25;;;;;;;14.05;4.30;;;;;;;21.15;52.32;95289.56;5046002;28;20033;-83
2022/08/28 00:11:51;;;;;;;10.93;4.78;;;;;;;21.17;51.99;95284.66;5046107;28;20025;-81
2022/08/28 00:14:19;;;;;;;9.80;4.38;;;;;;;21.20;52.39;95278.75;5046075;28;20029;-84
2022/08/28 00:16:46;;;;;;;9.57;4.38;;;;;;;21.17;52.82;95284.66;5046007;28;20029;-83
2022/08/28 00:19:12;;;;;;;12.40;4.72;;;;;;;21.15;52.62;95284.91;5045594;28;20021;-84
2022/08/28 00:21:38;;;;;;;8.35;4.93;;;;;;;21.13;52.62;95287.09;5046136;28;20032;-84
2022/08/28 00:24:03;;;;;;;8.80;4.35;;;;;;;21.09;52.00;95286.75;5045716;28;20028;-84
2022/08/28 00:29:13;;;;;;;7.10;4.30;;;;;;;21.10;51.75;95288.38;5046389;28;20086;-83
2022/08/28 00:31:38;;;;;;;7.40;4.53;;;;;;;21.04;51.35;95285.84;5045715;28;20203;-82
2022/08/28 00:34:07;;;;;;;10.48;4.90;;;;;;;20.99;51.34;95292.00;5046156;28;20037;-82
2022/08/28 00:36:32;;;;;;;10.82;4.75;;;;;;;20.92;51.69;95294.94;5045657;28;20412;-82
2022/08/28 00:38:59;;;;;;;9.70;4.63;;;;;;;20.83;51.71;95297.19;5046214;28;20049;-82
2022/08/28 00:41:30;;;;;;;12.75;4.97;;;;;;;20.79;51.89;95293.31;5045101;28;20029;-82
2022/08/28 00:44:08;;;;;;;13.00;4.95;;;;;;;20.74;52.22;95299.50;5045939;28;20025;-82
2022/08/28 00:46:33;;;;;;;6.78;4.25;;;;;;;20.73;51.88;95292.38;5045208;28;20354;-82
2022/08/28 00:48:59;;;;;;;9.65;4.30;;;;;;;20.71;51.99;95296.44;5045608;28;20423;-82
2022/08/28 00:54:08;;;;;;;11.38;5.07;;;;;;;20.68;52.24;95300.47;5030551;28;20035;-82
2022/08/28 00:56:34;;;;;;;7.60;4.50;;;;;;;20.67;52.17;95300.72;5045500;28;20025;-83
2022/08/28 00:59:02;;;;;;;10.57;4.55;;;;;;;20.59;52.02;95291.84;5044600;28;20465;-82
2022/08/28 01:01:28;;;;;;;8.75;5.10;;;;;;;20.53;52.56;95295.56;5048032;28;20033;-83
2022/08/28 01:03:53;;;;;;;8.00;4.78;;;;;;;20.44;52.63;95289.66;5049329;28;20523;-83
2022/08/28 01:06:19;;;;;;;9.60;4.82;;;;;;;20.46;52.23;95292.97;5049306;28;20078;-83
2022/08/28 01:08:45;;;;;;;8.77;4.55;;;;;;;20.52;52.51;95293.09;5049281;28;20040;-83
2022/08/28 01:11:10;;;;;;;8.60;4.57;;;;;;;20.52;52.45;95293.91;5049384;28;20099;-83
2022/08/28 01:13:37;;;;;;;9.02;4.95;;;;;;;20.46;52.71;95292.97;5030892;28;20033;-83
2022/08/28 01:16:02;;;;;;;8.45;4.40;;;;;;;20.44;52.88;95292.38;5048023;28;20036;-82
2022/08/28 01:18:29;;;;;;;10.13;4.72;;;;;;;20.41;53.02;95294.78;5047793;28;20029;-82
2022/08/28 01:21:22;;;;;;;9.40;4.60;;;;;;;20.35;53.05;95299.28;5047577;28;20646;-83
2022/08/28 01:24:04;;;;;;;11.85;4.68;;;;;;;20.24;52.83;95292.84;5047607;28;20033;-83
2022/08/28 01:26:30;;;;;;;11.07;4.93;;;;;;;20.23;53.44;95296.63;5047531;28;20017;-83
2022/08/28 01:28:57;;;;;;;9.98;4.80;;;;;;;20.19;53.66;95298.16;5049065;28;20036;-83
2022/08/28 01:31:23;;;;;;;10.80;5.15;;;;;;;20.15;53.87;95303.28;5047629;28;20029;-83
2022/08/28 01:33:49;;;;;;;10.57;4.82;;;;;;;20.15;54.16;95302.44;5048159;28;20048;-83
2022/08/28 01:36:14;;;;;;;14.93;4.88;;;;;;;20.13;54.12;95306.22;5048895;28;20029;-82
2022/08/28 01:38:41;;;;;;;10.27;4.50;;;;;;;20.11;54.38;95304.81;5048540;28;20045;-83
2022/08/28 01:41:06;;;;;;;11.80;5.03;;;;;;;20.07;53.91;95299.03;5030898;28;20021;-82
2022/08/28 01:43:32;;;;;;;6.03;4.10;;;;;;;20.05;54.35;95303.91;5048443;28;20036;-83
2022/08/28 01:46:03;;;;;;;13.77;5.15;;;;;;;20.03;54.17;95300.59;5048576;28;20041;-82
2022/08/28 01:48:29;;;;;;;12.20;5.30;;;;;;;19.97;54.22;95296.06;5048691;28;20044;-83
2022/08/28 01:50:55;;;;;;;11.07;5.60;;;;;;;19.96;54.95;95305.28;5048090;28;20068;-83
2022/08/28 01:53:22;;;;;;;12.98;4.93;;;;;;;19.94;54.29;95296.56;5048602;28;20033;-83
2022/08/28 01:55:48;;;;;;;16.55;5.93;;;;;;;19.93;54.12;95303.88;5048184;28;20025;-83
2022/08/28 01:58:14;;;;;;;10.10;5.47;;;;;;;19.93;54.08;95295.72;5048348;28;20090;-83
2022/08/28 02:00:40;;;;;;;11.80;5.93;;;;;;;19.92;54.44;95304.13;5049195;28;20051;-82
2022/08/28 02:03:06;;;;;;;10.93;6.00;;;;;;;19.92;54.41;95304.13;5050024;28;20033;-83
2022/08/28 02:05:31;;;;;;;15.90;5.32;;;;;;;19.94;54.04;95302.00;5048641;28;20369;-83
2022/08/28 02:07:57;;;;;;;10.60;5.28;;;;;;;19.95;54.17;95303.66;5048394;28;20035;-83
2022/08/28 02:10:24;;;;;;;13.10;5.82;;;;;;;19.95;54.23;95296.31;5049139;28;20040;-83
2022/08/28 02:12:50;;;;;;;9.07;5.10;;;;;;;19.92;54.53;95301.41;5049070;28;20033;-83
2022/08/28 02:15:16;;;;;;;10.75;5.18;;;;;;;19.94;54.64;95307.44;5050105;28;20055;-82
2022/08/28 02:17:41;;;;;;;9.27;5.63;;;;;;;19.96;54.26;95310.72;5048733;28;20512;-84
2022/08/28 02:20:07;;;;;;;12.10;5.60;;;;;;;19.99;53.67;95310.28;5048265;28;20095;-84
2022/08/28 02:22:33;;;;;;;8.88;5.22;;;;;;;20.03;53.74;95305.19;5048041;28;20112;-84
2022/08/28 02:24:58;;;;;;;12.43;5.57;;;;;;;19.97;53.70;95301.53;5047630;28;20037;-83
2022/08/28 02:27:24;;;;;;;11.00;5.15;;;;;;;20.00;53.76;95306.47;5047709;28;20032;-83
2022/08/28 02:29:49;;;;;;;8.98;5.25;;;;;;;19.95;53.93;95309.09;5047754;28;20028;-83
2022/08/28 02:32:16;;;;;;;17.45;5.70;;;;;;;19.97;54.01;95309.69;5047806;28;20025;-83
2022/08/28 02:34:42;;;;;;;10.98;5.60;;;;;;;19.87;54.22;95302.97;5047637;28;20534;-83
2022/08/28 02:37:10;;;;;;;10.00;5.47;;;;;;;19.83;54.34;95304.50;5047499;28;20106;-83
2022/08/28 02:39:35;;;;;;;13.50;5.50;;;;;;;19.81;54.33;95311.25;5047677;28;20108;-83
2022/08/28 02:42:01;;;;;;;11.88;6.07;;;;;;;19.77;54.69;95324.50;5047787;28;20078;-83
2022/08/28 02:44:26;;;;;;;10.13;5.63;;;;;;;19.76;54.99;95309.25;5047737;28;20459;-83
2022/08/28 02:46:52;;;;;;;10.20;5.03;;;;;;;19.75;55.04;95310.28;5047584;28;20037;-83
2022/08/28 02:49:17;;;;;;;9.27;5.28;;;;;;;19.76;54.73;95306.53;5047884;28;20230;-83
2022/08/28 02:51:43;;;;;;;11.02;5.63;;;;;;;19.69;55.28;95308.53;5047577;28;20032;-83
2022/08/28 02:54:08;;;;;;;10.55;5.10;;;;;;;19.64;55.51;95312.81;5047313;28;20426;-83
2022/08/28 02:56:34;;;;;;;8.82;4.90;;;;;;;19.70;55.13;95302.84;5047716;28;20029;-84
2022/08/28 02:58:59;;;;;;;14.50;5.90;;;;;;;19.62;55.39;95317.66;5047449;28;20423;-83
2022/08/28 03:01:24;;;;;;;10.93;5.70;;;;;;;19.62;55.29;95316.81;5048093;28;20025;-83
2022/08/28 03:03:50;;;;;;;12.05;5.72;;;;;;;19.53;55.75;95316.34;5047583;28;20083;-83
2022/08/28 03:06:15;;;;;;;10.45;5.20;;;;;;;19.53;56.01;95319.06;5047000;28;20457;-83
2022/08/28 03:08:41;;;;;;;10.57;5.90;;;;;;;19.57;55.81;95316.72;5047679;28;20032;-83
2022/08/28 03:11:06;;;;;;;12.85;5.30;;;;;;;19.56;56.06;95318.59;5047218;28;20095;-83
2022/08/28 03:13:32;;;;;;;12.90;5.53;;;;;;;19.52;55.38;95314.72;5046890;28;20087;-83
2022/08/28 03:15:58;;;;;;;10.55;5.43;;;;;;;19.46;55.41;95315.66;5047059;28;20032;-84
2022/08/28 03:18:25;;;;;;;15.00;5.65;;;;;;;19.46;55.66;95318.38;5047012;28;20029;-83
2022/08/28 03:20:50;;;;;;;10.10;5.60;;;;;;;19.43;55.94;95313.38;5055412;28;20051;-83
2022/08/28 03:23:25;;;;;;;12.38;5.45;;;;;;;19.43;56.05;95318.81;5053276;28;20017;-84
2022/08/28 03:25:54;;;;;;;8.82;5.45;;;;;;;19.34;55.81;95316.47;5051167;28;20033;-83
2022/08/28 03:28:19;;;;;;;10.77;5.72;;;;;;;19.29;56.05;95319.06;5050406;28;20079;-83
2022/08/28 03:30:45;;;;;;;9.38;5.57;;;;;;;19.25;56.27;95317.88;5050821;28;20028;-84
2022/08/28 03:33:10;;;;;;;7.82;5.53;;;;;;;19.22;56.45;95318.34;5049757;28;20420;-83
2022/08/28 03:35:39;;;;;;;12.73;6.68;;;;;;;19.13;56.84;95317.88;5047191;28;20029;-83
2022/08/28 03:38:04;;;;;;;12.65;6.28;;;;;;;19.08;56.80;95323.97;5046715;28;20499;-83
2022/08/28 03:40:31;;;;;;;11.80;6.32;;;;;;;19.03;57.01;95332.00;5047227;28;20036;-83
2022/08/28 03:42:56;;;;;;;14.23;5.65;;;;;;;19.01;57.55;95334.13;5046816;28;20409;-83
2022/08/28 03:45:22;;;;;;;10.10;6.13;;;;;;;18.99;57.83;95342.50;5046513;28;20032;-83
2022/08/28 03:47:47;;;;;;;11.88;6.00;;;;;;;18.98;57.63;95331.88;5046723;28;20029;-83
2022/08/28 03:50:15;;;;;;;11.15;6.60;;;;;;;18.98;57.78;95340.00;5046253;28;20492;-83
2022/08/28 03:52:41;;;;;;;13.15;6.28;;;;;;;18.90;57.86;95341.19;5046544;28;20033;-83
2022/08/28 03:55:07;;;;;;;11.07;6.13;;;;;;;18.89;58.16;95348.50;5046718;28;20332;-83
2022/08/28 03:57:33;;;;;;;14.85;6.40;;;;;;;18.88;57.87;95349.56;5046590;28;20032;-83
2022/08/28 03:59:58;;;;;;;16.98;6.28;;;;;;;18.92;57.71;95354.53;5046918;28;20024;-83
2022/08/28 04:02:24;;;;;;;14.80;6.10;;;;;;;18.87;58.00;95364.22;5046168;28;20021;-84
2022/08/28 04:04:49;;;;;;;18.52;7.55;;;;;;;18.85;57.52;95358.19;5046671;28;20055;-83
2022/08/28 04:07:15;;;;;;;11.10;6.90;;;;;;;18.84;57.30;95366.56;5046127;28;20057;-83
2022/08/28 04:09:41;;;;;;;17.17;6.57;;;;;;;18.85;57.48;95360.91;5047016;28;20021;-83
2022/08/28 04:12:07;;;;;;;13.07;6.93;;;;;;;18.87;57.38;95361.50;5046406;28;20040;-83
2022/08/28 04:14:33;;;;;;;11.68;6.93;;;;;;;18.88;57.12;95357.72;5046082;28;20032;-84
2022/08/28 04:16:58;;;;;;;14.40;7.15;;;;;;;18.92;56.87;95368.13;5046479;28;20548;-82
2022/08/28 04:19:24;;;;;;;8.65;6.32;;;;;;;18.88;57.85;95373.19;5045701;28;20021;-82
2022/08/28 04:21:50;;;;;;;12.95;6.80;;;;;;;18.89;57.64;95377.56;5046096;28;20021;-83
2022/08/28 04:24:15;;;;;;;12.90;6.78;;;;;;;18.93;57.50;95377.91;5046217;28;20036;-82
2022/08/28 04:26:41;;;;;;;9.73;6.10;;;;;;;18.95;57.44;95378.53;5046196;28;20048;-83
2022/08/28 04:29:06;;;;;;;11.13;6.18;;;;;;;18.99;57.08;95385.16;5046003;28;20029;-83
2022/08/28 04:31:32;;;;;;;12.00;6.63;;;;;;;19.00;57.01;95381.38;5045740;28;20036;-83
2022/08/28 04:33:58;;;;;;;15.90;6.30;;;;;;;19.04;56.77;95382.56;5047635;28;20115;-83
2022/08/28 04:36:24;;;;;;;13.30;6.40;;;;;;;19.08;57.06;95381.06;5049318;28;20035;-82
2022/08/28 04:38:49;;;;;;;14.40;5.97;;;;;;;19.14;56.73;95382.88;5049940;28;20041;-83
2022/08/28 04:41:15;;;;;;;15.32;6.22;;;;;;;19.16;56.44;95385.34;5051182;28;20163;-83
2022/08/28 04:43:41;;;;;;;14.52;6.22;;;;;;;19.17;56.98;95387.00;5049468;28;20411;-84
2022/08/28 04:46:10;;;;;;;12.48;6.10;;;;;;;19.23;57.36;95394.22;5049607;28;20476;-83
2022/08/28 04:48:35;;;;;;;13.35;6.10;;;;;;;19.32;57.05;95399.31;5049521;28;20103;-84
2022/08/28 04:51:06;;;;;;;16.55;7.35;;;;;;;19.37;56.62;95397.59;5049537;28;20117;-84
2022/08/28 04:53:31;;;;;;;13.32;6.63;;;;;;;19.41;55.98;95397.13;5048907;28;20025;-81
2022/08/28 04:55:58;;;;;;;14.50;7.22;;;;;;;19.49;55.60;95394.88;5049557;28;20111;-82
2022/08/28 04:58:23;;;;;;;13.43;6.88;;;;;;;19.63;55.42;95406.38;5049251;28;20094;-82
2022/08/28 05:00:49;;;;;;;8.25;6.22;;;;;;;19.72;55.30;95398.66;5048016;28;20027;-83
2022/08/28 05:03:15;;;;;;;15.15;7.10;;;;;;;19.83;55.66;95405.19;5049152;28;20032;-83
2022/08/28 05:05:48;;;;;;;14.57;6.70;;;;;;;19.93;56.21;95403.75;5049418;28;20016;-82
2022/08/28 05:08:14;;;;;;;10.35;6.82;;;;;;;20.01;56.02;95408.84;5049237;28;20040;-82
2022/08/28 05:10:40;;;;;;;14.27;6.68;;;;;;;20.01;55.96;95408.84;5049074;28;20112;-82
2022/08/28 05:13:07;;;;;;;12.32;6.47;;;;;;;20.13;56.03;95414.31;5049171;28;20104;-82
2022/08/28 05:15:37;;;;;;;9.70;6.50;;;;;;;20.26;55.44;95410.50;5048300;28;20451;-82
2022/08/28 05:18:02;;;;;;;14.10;6.65;;;;;;;20.37;54.83;95409.66;5051091;28;20025;-83
2022/08/28 05:20:28;;;;;;;10.48;6.47;;;;;;;20.43;54.89;95412.47;5048831;28;20575;-83
2022/08/28 05:22:53;;;;;;;13.48;6.68;;;;;;;20.56;54.58;95416.81;5049145;28;20480;-83
2022/08/28 05:25:19;;;;;;;12.13;6.55;;;;;;;20.63;54.29;95410.16;5049285;28;20028;-83
2022/08/28 05:27:44;;;;;;;14.63;6.85;;;;;;;20.78;54.84;95419.72;5048721;28;20365;-83
2022/08/28 05:30:10;;;;;;;20.67;6.80;;;;;;;20.89;54.14;95420.75;5049024;28;20025;-84
2022/08/28 05:32:36;;;;;;;10.70;6.55;;;;;;;20.99;53.72;95409.22;5048619;28;20033;-84
2022/08/28 05:35:01;;;;;;;13.00;6.60;;;;;;;21.10;53.44;95413.81;5049891;28;20021;-82
2022/08/28 05:37:27;;;;;;;9.60;5.57;;;;;;;21.22;52.92;95412.91;5048270;28;20431;-82
2022/08/28 05:39:52;;;;;;;13.85;6.47;;;;;;;21.34;52.50;95416.44;5049078;28;20025;-82
2022/08/28 05:42:18;;;;;;;12.90;6.40;;;;;;;21.41;52.55;95420.91;5048568;28;20319;-82
2022/08/28 05:44:43;;;;;;;10.65;5.72;;;;;;;21.45;52.58;95419.31;5048565;28;20028;-83
2022/08/28 05:47:09;;;;;;;8.90;6.32;;;;;;;21.49;52.46;95415.84;5048501;28;20024;-82
2022/08/28 05:49:35;;;;;;;12.20;6.18;;;;;;;21.53;52.62;95416.19;5049026;28;20032;-82
2022/08/28 05:52:00;;;;;;;12.07;6.13;;;;;;;21.61;52.29;95429.44;5048979;28;20021;-82
2022/08/28 05:54:26;;;;;;;15.73;6.85;;;;;;;21.71;51.60;95425.19;5048606;28;20036;-82
2022/08/28 05:56:51;;;;;;;10.48;5.88;;;;;;;21.71;52.19;95420.59;5048299;28;20441;-82
2022/08/28 05:59:17;;;;;;;7.90;5.50;;;;;;;21.81;52.15;95414.47;5048257;28;20029;-82
2022/08/28 06:01:44;;;;;;;14.13;6.43;;;;;;;21.94;52.14;95410.56;5048649;28;20021;-82
2022/08/28 06:04:11;;;;;;;11.15;6.28;;;;;;;21.93;52.02;95411.66;5047718;28;20036;-83
2022/08/28 06:06:38;;;;;;;10.95;5.72;;;;;;;21.97;51.88;95409.25;5048356;28;20578;-83
2022/08/28 06:09:08;;;;;;;18.63;7.55;;;;;;;22.10;52.43;95411.63;5047830;28;20041;-83
2022/08/28 06:11:34;;;;;;;11.68;5.75;;;;;;;22.18;51.86;95415.00;5048091;28;20095;-84
2022/08/28 06:14:00;;;;;;;11.18;5.95;;;;;;;22.29;51.64;95418.69;5048283;28;20537;-84
2022/08/28 06:16:26;;;;;;;8.52;5.95;;;;;;;22.40;50.69;95416.94;5047684;28;20036;-83
2022/08/28 06:18:51;;;;;;;12.45;6.20;;;;;;;22.51;50.53;95426.91;5048085;28;20029;-83
2022/08/28 06:21:16;;;;;;;14.77;6.20;;;;;;;22.63;50.36;95412.34;5047608;28;20032;-83
2022/08/28 06:23:43;;;;;;;13.10;6.28;;;;;;;22.72;49.30;95421.72;5048101;28;20078;-83
2022/08/28 06:26:08;;;;;;;19.38;6.32;;;;;;;22.83;48.92;95422.66;5047666;28;20029;-83
2022/08/28 06:28:34;;;;;;;14.43;6.25;;;;;;;22.96;49.64;95415.97;5047848;28;20064;-83
2022/08/28 06:31:01;;;;;;;14.77;5.97;;;;;;;23.05;49.49;95419.91;5047573;28;20032;-84
2022/08/28 06:33:26;;;;;;;10.18;5.72;;;;;;;23.07;49.89;95416.94;5047163;28;20120;-83
2022/08/28 06:35:53;;;;;;;21.25;6.55;;;;;;;23.12;49.51;95422.44;5047712;28;20025;-83
2022/08/28 06:38:19;;;;;;;10.85;6.25;;;;;;;23.15;49.00;95418.38;5046678;28;20164;-83
2022/08/28 06:40:46;;;;;;;16.67;6.65;;;;;;;23.32;47.92;95419.09;5047640;28;20029;-83
2022/08/28 06:43:12;;;;;;;13.57;6.00;;;;;;;23.46;49.28;95421.44;5048658;28;20021;-83
2022/08/28 06:45:45;;;;;;;14.75;6.28;;;;;;;23.55;49.23;95433.56;5047612;28;20369;-85
2022/08/28 06:48:12;;;;;;;11.02;6.13;;;;;;;23.60;48.43;95429.22;5046881;28;20039;-83
2022/08/28 06:50:42;;;;;;;13.70;5.93;;;;;;;23.69;48.46;95423.00;5045755;28;20096;-83
2022/08/28 06:53:08;;;;;;;10.95;6.15;;;;;;;23.87;47.99;95417.38;5046954;28;20508;-84
2022/08/28 06:55:34;;;;;;;10.38;6.10;;;;;;;23.92;47.58;95420.97;5046845;28;20115;-83
2022/08/28 06:57:59;;;;;;;12.73;6.10;;;;;;;24.03;46.90;95416.41;5046609;28;20035;-84
2022/08/28 07:00:25;;;;;;;15.57;7.15;;;;;;;24.13;46.18;95412.09;5046439;28;20040;-83
2022/08/28 07:02:50;;;;;;;12.15;6.57;;;;;;;23.90;47.01;95416.84;5047023;28;20025;-83
2022/08/28 07:05:16;;;;;;;11.90;6.50;;;;;;;23.83;46.96;95417.91;5046626;28;20475;-84
2022/08/28 07:07:41;;;;;;;12.93;7.20;;;;;;;23.80;47.03;95418.44;5046740;28;20483;-84
2022/08/28 07:10:07;;;;;;;11.13;6.30;;;;;;;24.04;46.63;95412.56;5046455;28;20113;-83
2022/08/28 07:12:32;;;;;;;9.60;6.32;;;;;;;24.11;46.47;95417.81;5046141;28;20150;-84
2022/08/28 07:14:58;;;;;;;14.38;6.07;;;;;;;24.10;45.97;95421.66;5046804;28;20037;-84
2022/08/28 07:17:23;;;;;;;12.35;6.30;;;;;;;23.89;46.37;95420.69;5044922;28;20060;-84
2022/08/28 07:19:49;;;;;;;9.15;6.25;;;;;;;23.86;46.37;95421.22;5046691;28;20056;-84
2022/08/28 07:22:15;;;;;;;17.23;6.38;;;;;;;23.88;46.48;95414.38;5046021;28;20360;-82
2022/08/28 07:24:40;;;;;;;12.70;6.57;;;;;;;23.88;46.46;95416.28;5046738;28;20094;-84
2022/08/28 07:27:06;;;;;;;18.23;6.28;;;;;;;24.00;45.84;95413.38;5046531;28;20031;-83
2022/08/28 07:29:31;;;;;;;12.93;5.70;;;;;;;24.12;45.65;95410.44;5046161;28;20021;-82
2022/08/28 07:31:57;;;;;;;12.18;5.97;;;;;;;23.91;45.38;95407.53;5046527;28;20392;-86
2022/08/28 07:34:23;;;;;;;11.13;6.25;;;;;;;23.90;45.74;95405.91;5045564;28;20068;-84
2022/08/28 07:36:51;;;;;;;10.88;5.90;;;;;;;24.07;45.67;95401.09;5046862;28;20049;-82
2022/08/28 07:39:17;;;;;;;11.80;5.82;;;;;;;24.20;45.67;95399.00;5046061;28;20104;-83
2022/08/28 07:41:45;;;;;;;16.80;7.03;;;;;;;24.13;45.60;95395.66;5046569;28;20104;-85
2022/08/28 07:46:57;;;;;;;9.20;5.95;;;;;;;24.27;45.71;95402.34;5046043;28;20044;-83
2022/08/28 07:49:24;;;;;;;12.35;6.13;;;;;;;24.49;44.61;95398.59;5046133;28;20371;-84
2022/08/28 07:51:49;;;;;;;10.32;6.43;;;;;;;24.47;44.80;95391.75;5045736;28;20028;-83
2022/08/28 07:54:15;;;;;;;13.23;5.93;;;;;;;24.38;45.54;95394.16;5046414;28;20036;-82
2022/08/28 07:56:40;;;;;;;11.65;5.97;;;;;;;24.37;45.31;95387.03;5046228;28;20028;-84
2022/08/28 07:59:06;;;;;;;13.13;5.78;;;;;;;24.61;43.94;95392.91;5046485;28;20021;-83
2022/08/28 08:01:38;;;;;;;15.05;5.90;;;;;;;24.56;44.36;95390.97;5045582;28;20029;-83
2022/08/28 08:04:06;;;;;;;10.65;5.93;;;;;;;24.40;44.61;95394.72;5045992;28;20066;-83
2022/08/28 08:06:31;;;;;;;11.07;5.80;;;;;;;24.61;44.03;95398.38;5045845;28;20029;-83
2022/08/28 08:08:57;;;;;;;9.77;5.95;;;;;;;24.56;44.42;95393.72;5045585;28;20111;-83
2022/08/28 08:11:22;;;;;;;11.63;5.90;;;;;;;24.92;43.59;95394.97;5045573;28;20063;-83
2022/08/28 08:13:48;;;;;;;16.10;5.43;;;;;;;25.09;42.97;95391.97;5045695;28;20099;-82
2022/08/28 08:16:16;;;;;;;15.65;5.53;;;;;;;25.26;42.54;95399.16;5046209;28;20060;-83
2022/08/28 08:18:42;;;;;;;15.65;6.50;;;;;;;25.39;42.65;95392.31;5045754;28;20025;-84
2022/08/28 08:21:10;;;;;;;14.27;5.45;;;;;;;25.63;41.56;95392.59;5045795;28;20040;-85
2022/08/28 08:23:37;;;;;;;14.93;5.75;;;;;;;25.57;41.16;95388.16;5045515;28;20431;-84
2022/08/28 08:26:04;;;;;;;17.65;5.93;;;;;;;25.40;41.90;95396.69;5044467;28;20025;-83
2022/08/28 08:28:29;;;;;;;15.32;6.53;;;;;;;25.63;41.52;95389.03;5045635;28;20033;-84
2022/08/28 08:31:16;;;;;;;15.13;6.10;;;;;;;25.71;41.42;95393.16;5045748;28;20167;-83
2022/08/28 08:33:44;;;;;;;11.48;5.45;;;;;;;25.93;41.10;95387.38;5045814;28;20025;-83
2022/08/28 08:36:10;;;;;;;14.27;6.03;;;;;;;26.11;41.46;95377.72;5045589;28;20029;-84
2022/08/28 08:38:36;;;;;;;10.40;5.40;;;;;;;26.13;41.27;95381.00;5045118;28;20037;-83
2022/08/28 08:41:05;;;;;;;13.20;5.97;;;;;;;26.15;40.00;95369.72;5046022;28;20032;-83
2022/08/28 08:43:32;;;;;;;17.77;5.63;;;;;;;26.12;39.83;95376.63;5043741;28;20088;-84
2022/08/28 08:45:57;;;;;;;13.13;6.32;;;;;;;26.21;40.71;95374.13;5044429;28;20402;-83
2022/08/28 08:48:32;;;;;;;11.85;5.60;;;;;;;26.33;40.31;95367.50;5043918;28;20028;-82
2022/08/28 08:51:19;;;;;;;7.95;5.20;;;;;;;26.47;39.88;95365.81;5044219;28;20025;-83
2022/08/28 08:53:49;;;;;;;15.80;5.47;;;;;;;26.71;38.69;95373.44;5044640;28;20472;-83
2022/08/28 08:56:15;;;;;;;15.82;5.47;;;;;;;26.91;38.51;95369.75;5028105;28;20021;-83
2022/08/28 08:58:51;;;;;;;9.90;5.65;;;;;;;26.89;38.46;95371.16;5044237;28;20036;-83
2022/08/28 09:01:25;;;;;;;16.40;5.50;;;;;;;27.07;38.18;95368.88;5045081;28;20033;-83
2022/08/28 09:04:01;;;;;;;12.88;5.40;;;;;;;27.11;39.45;95375.44;5045489;28;20051;-83
2022/08/28 09:06:46;;;;;;;7.80;5.30;;;;;;;27.09;39.23;95374.88;5028582;28;20071;-83
2022/08/28 09:09:20;;;;;;;11.90;5.65;;;;;;;26.68;39.81;95374.00;5028914;28;20368;-82
2022/08/28 09:11:59;;;;;;;12.10;6.25;;;;;;;26.72;39.26;95376.97;5043865;28;20170;-84
2022/08/28 09:14:27;;;;;;;12.27;5.15;;;;;;;26.95;39.56;95367.25;5045155;28;20508;-85
2022/08/28 09:16:54;;;;;;;15.30;5.50;;;;;;;27.25;40.32;95365.44;5045612;28;20096;-83
2022/08/28 09:19:19;;;;;;;12.68;6.45;;;;;;;26.77;40.17;95364.03;5044155;28;20029;-83
2022/08/28 09:21:45;;;;;;;7.88;5.43;;;;;;;27.05;39.87;95360.06;5047399;28;20522;-83
2022/08/28 09:24:36;;;;;;;15.30;6.90;;;;;;;27.01;39.93;95362.56;5048739;28;20396;-83
2022/08/28 09:27:23;;;;;;;14.50;6.00;;;;;;;27.31;40.68;95370.91;5047912;28;20025;-83
2022/08/28 09:30:03;;;;;;;10.88;5.53;;;;;;;27.68;40.09;95363.22;5048573;28;20041;-83
2022/08/28 09:32:28;;;;;;;16.30;6.75;;;;;;;27.49;38.80;95358.38;5048470;28;20025;-83
2022/08/28 09:35:00;;;;;;;13.25;5.97;;;;;;;27.33;38.68;95354.91;5048190;28;20029;-83
2022/08/28 09:37:25;;;;;;;;;;;;;;;26.96;39.29;95354.31;5048860;28;20068;-83
2022/08/28 09:40:13;;;;;;;16.33;6.53;;;;;;;26.97;38.95;95347.72;5047978;28;20394;-83
2022/08/28 09:45:24;;;;;;;10.32;5.60;;;;;;;27.27;41.21;95352.22;5048576;28;20039;-84
2022/08/28 09:47:56;;;;;;;12.02;5.82;;;;;;;27.47;39.95;95344.88;5030801;28;20033;-83
2022/08/28 09:50:41;;;;;;;14.10;6.40;;;;;;;27.85;38.98;95341.56;5046899;28;20488;-84
2022/08/28 09:53:10;;;;;;;11.75;5.90;;;;;;;28.05;39.27;95330.63;5046236;28;20021;-83
2022/08/28 09:55:45;;;;;;;10.38;5.95;;;;;;;28.08;38.29;95328.13;5048833;28;20037;-83
2022/08/28 09:58:10;;;;;;;11.65;5.90;;;;;;;28.28;39.46;95331.72;5046695;28;20025;-83
2022/08/28 10:00:37;;;;;;;14.00;5.95;;;;;;;28.12;38.14;95328.31;5048527;28;20082;-84
2022/08/28 10:03:18;;;;;;;14.43;6.20;;;;;;;28.00;38.30;95326.78;5046591;28;20021;-83
2022/08/28 10:05:56;;;;;;;9.32;5.65;;;;;;;28.26;38.59;95323.75;5046913;28;20025;-83
2022/08/28 10:08:21;;;;;;;10.70;5.45;;;;;;;28.50;37.27;95320.19;5048349;28;20024;-84
2022/08/28 10:10:50;;;;;;;11.60;5.65;;;;;;;28.56;36.70;95318.19;5047824;28;20085;-84
2022/08/28 10:13:22;;;;;;;9.30;5.03;;;;;;;28.59;37.12;95322.28;5030565;28;20025;-84
2022/08/28 10:16:03;;;;;;;11.18;5.38;;;;;;;28.73;36.35;95316.84;5048939;28;20071;-83
2022/08/28 10:19:08;;;;;;;15.48;5.47;;;;;;;28.88;36.00;95307.53;5047868;28;20404;-83
2022/08/28 10:21:40;;;;;;;8.35;5.13;;;;;;;28.95;36.13;95308.00;5028935;28;20047;-82
2022/08/28 10:24:44;;;;;;;13.25;6.00;;;;;;;28.92;36.20;95313.31;5047023;28;20435;-83
2022/08/28 10:27:21;;;;;;;12.35;5.47;;;;;;;28.73;35.03;95303.06;5046686;28;20060;-83
2022/08/28 10:29:50;;;;;;;10.77;5.25;;;;;;;28.63;35.10;95309.56;5047713;28;20044;-83
2022/08/28 10:32:46;;;;;;;11.18;5.82;;;;;;;28.88;35.38;95308.38;5045863;28;20036;-84
2022/08/28 10:35:39;;;;;;;10.98;5.65;;;;;;;28.98;35.70;95310.19;5047454;28;20025;-83
2022/08/28 10:38:21;;;;;;;9.90;5.35;;;;;;;29.05;35.92;95303.47;5047173;28;20069;-84
2022/08/28 10:40:53;;;;;;;8.02;5.20;;;;;;;29.00;34.46;95302.41;5045792;28;20091;-84
2022/08/28 10:43:45;;;;;;;7.90;5.65;;;;;;;29.07;34.20;95307.56;5047604;28;20033;-85
2022/08/28 10:46:20;;;;;;;13.88;6.13;;;;;;;28.99;35.40;95306.31;5043052;28;20040;-84
2022/08/28 10:49:07;;;;;;;10.27;5.60;;;;;;;28.98;34.90;95304.69;5046980;28;20107;-84
2022/08/28 10:51:47;;;;;;;8.82;5.15;;;;;;;28.78;33.02;95297.47;5045866;28;20044;-84
2022/08/28 10:54:25;;;;;;;13.70;5.70;;;;;;;28.52;33.06;95288.75;5046670;28;20025;-84
2022/08/28 10:56:54;;;;;;;12.45;6.03;;;;;;;28.53;33.68;95287.63;5046727;28;20040;-83
2022/08/28 10:59:20;;;;;;;13.02;5.82;;;;;;;28.53;33.41;95290.38;5045348;28;20032;-85
2022/08/28 11:01:45;;;;;;;12.10;6.07;;;;;;;28.53;33.11;95290.38;5029350;28;20028;-84
2022/08/28 11:04:18;;;;;;;10.55;4.82;;;;;;;28.60;32.06;95288.88;5047200;28;20032;-84
2022/08/28 11:06:48;;;;;;;9.90;5.00;;;;;;;28.66;31.57;95288.81;5046969;28;20044;-82
2022/08/28 11:09:25;;;;;;;8.85;3.72;;;;;;;28.97;27.17;95285.66;5029164;28;20021;-83
2022/08/28 11:11:56;;;;;;;9.77;4.45;;;;;;;29.22;29.80;95284.44;5045250;28;20036;-83
2022/08/28 11:14:23;;;;;;;10.13;4.38;;;;;;;29.48;27.84;95286.78;5045451;28;20471;-83
2022/08/28 11:16:48;;;;;;;12.40;4.45;;;;;;;29.71;27.94;95278.63;5045421;28;20028;-83
2022/08/28 11:19:33;;;;;;;13.18;5.00;;;;;;;29.79;29.98;95268.03;5045305;28;20029;-83
2022/08/28 11:22:03;;;;;;;9.93;4.32;;;;;;;29.90;26.96;95269.47;5045690;28;20095;-84
2022/08/28 11:24:38;;;;;;;8.77;4.38;;;;;;;29.95;27.33;95268.56;5044806;28;20033;-84
2022/08/28 11:27:28;;;;;;;8.25;4.13;;;;;;;29.94;28.45;95275.19;5047046;28;20480;-83
2022/08/28 11:29:56;;;;;;;7.22;4.25;;;;;;;30.07;26.53;95268.03;5046501;28;20876;-83
2022/08/28 11:32:31;;;;;;;11.32;4.80;;;;;;;30.18;27.90;95265.91;5046117;28;20411;-83
2022/08/28 11:35:20;;;;;;;10.18;4.13;;;;;;;30.20;26.59;95263.66;5047094;28;20621;-83
2022/08/28 11:37:47;;;;;;;10.50;4.72;;;;;;;29.71;25.36;95264.03;5045216;28;20069;-83
2022/08/28 11:40:30;;;;;;;6.38;3.63;;;;;;;29.82;26.38;95268.25;5045579;28;20037;-83
2022/08/28 11:43:14;;;;;;;6.25;3.83;;;;;;;30.07;26.76;95254.19;5044901;28;20029;-83
2022/08/28 11:45:45;;;;;;;8.07;4.82;;;;;;;30.13;27.03;95260.47;5045972;28;20040;-83